Time;durP1;ratioP1;P1;durP2;ratioP2;P2;SDS_P1;SDS_P2;PMS_P1;PMS_P2;Temp;Humidity;BMP_temperature;BMP_pressure;BME280_temperature;BME280_humidity;BME280_pressure;Samples;Min_cycle;Max_cycle;Signal;HPM_P1;HPM_P2
2022/09/20 00:01:01;;;;;;;;;;;;;;;14.12;64.48;99818.69;4430842;32;19969;-83
2022/09/20 00:03:28;;;;;;;;;;;;;;;14.54;62.10;99823.06;4421699;32;20430;-79
2022/09/20 00:05:58;;;;;;;;;;;;;;;14.47;62.39;99825.66;4446694;32;19981;-79
2022/09/20 00:08:25;;;;;;;;;;;;;;;14.28;63.03;99819.56;4446447;32;20405;-78
2022/09/20 00:10:56;;;;;;;;;;;;;;;14.19;64.05;99820.41;4417820;32;20463;-81
2022/09/20 00:13:23;;;;;;;;;;;;;;;14.32;63.37;99816.94;4445078;32;19985;-79
2022/09/20 00:15:50;;;;;;;;;;;;;;;14.27;63.64;99817.84;4446368;32;20352;-79
2022/09/20 00:18:17;;;;;;;;;;;;;;;14.41;62.54;99816.09;4444307;32;20376;-82
2022/09/20 00:20:44;;;;;;;;;;;;;;;14.47;62.58;99810.03;4445661;32;19992;-78
2022/09/20 00:23:11;;;;;;;;;;;;;;;14.10;64.04;99816.09;4445318;32;19996;-82
2022/09/20 00:25:38;;;;;;;;;;;;;;;14.38;62.99;99816.09;4443367;32;20322;-79
2022/09/20 00:28:05;;;;;;;;;;;;;;;14.31;63.30;99815.22;4446359;32;19981;-78
2022/09/20 00:30:32;;;;;;;;;;;;;;;14.34;63.03;99822.19;4446050;32;19985;-79
2022/09/20 00:32:59;;;;;;;;;;;;;;;14.26;63.34;99816.94;4446300;32;19973;-79
2022/09/20 00:35:26;;;;;;;;;;;;;;;14.31;62.38;99815.22;4445657;32;19981;-83
2022/09/20 00:37:54;;;;;;;;;;;;;;;14.25;62.65;99810.00;4445605;32;19986;-79
2022/09/20 00:40:21;;;;;;;;;;;;;;;14.45;61.54;99814.34;4444767;32;19973;-78
2022/09/20 00:42:48;;;;;;;;;;;;;;;14.38;61.75;99808.28;4444852;32;19996;-78
2022/09/20 00:45:22;;;;;;;;;;;;;;;14.23;62.61;99811.75;4444291;32;19992;-79
2022/09/20 00:48:12;;;;;;;;;;;;;;;14.25;62.84;99815.22;4445445;32;19996;-79
2022/09/20 00:50:40;;;;;;;;;;;;;;;14.20;62.70;99811.75;4441210;32;19986;-81
2022/09/20 00:53:15;;;;;;;;;;;;;;;14.23;62.28;99806.56;4446716;32;19989;-79
2022/09/20 00:55:45;;;;;;;;;;;;;;;14.25;62.61;99815.22;4445868;32;19993;-80
2022/09/20 00:58:12;;;;;;;;;;;;;;;14.25;62.10;99814.34;4434210;32;19985;-78
2022/09/20 01:00:39;;;;;;;;;;;;;;;14.09;63.15;99816.06;4430779;32;19992;-79
2022/09/20 01:03:06;;;;;;;;;;;;;;;13.99;63.91;99828.19;4441604;32;20009;-78
2022/09/20 01:05:33;;;;;;;;;;;;;;;14.26;62.40;99822.16;4441988;32;20332;-80
2022/09/20 01:08:00;;;;;;;;;;;;;;;14.01;63.43;99836.00;4430347;32;20031;-79
2022/09/20 01:10:27;;;;;;;;;;;;;;;14.25;62.64;99825.63;4441173;32;20017;-77
2022/09/20 01:12:54;;;;;;;;;;;;;;;14.26;61.97;99832.56;4441414;32;19978;-78
2022/09/20 01:15:22;;;;;;;;;;;;;;;13.86;63.61;99831.66;4425308;32;19989;-79
2022/09/20 01:17:50;;;;;;;;;;;;;;;14.11;62.82;99827.38;4428809;32;19986;-77
2022/09/20 01:20:19;;;;;;;;;;;;;;;14.02;63.27;99832.56;4425576;32;20001;-81
2022/09/20 01:22:58;;;;;;;;;;;;;;;14.16;62.83;99836.91;4430370;32;20005;-77
2022/09/20 01:25:25;;;;;;;;;;;;;;;13.96;63.37;99838.59;4429570;32;19981;-77
2022/09/20 01:27:52;;;;;;;;;;;;;;;14.08;62.16;99836.03;4422817;32;20007;-79
2022/09/20 01:30:20;;;;;;;;;;;;;;;14.09;62.08;99839.50;4431195;32;19996;-77
2022/09/20 01:33:04;;;;;;;;;;;;;;;14.10;62.00;99836.00;4430902;32;20349;-79
2022/09/20 01:35:31;;;;;;;;;;;;;;;13.65;64.40;99832.44;4418431;32;20259;-82
2022/09/20 01:38:17;;;;;;;;;;;;;;;13.84;63.29;99829.03;4430915;32;20350;-80
2022/09/20 01:40:47;;;;;;;;;;;;;;;14.00;63.01;99840.34;4458548;32;20452;-77
2022/09/20 01:43:14;;;;;;;;;;;;;;;14.04;62.77;99846.41;4461106;32;19988;-77
2022/09/20 01:45:44;;;;;;;;;;;;;;;13.98;62.62;99851.63;4460751;32;20026;-82
2022/09/20 01:48:30;;;;;;;;;;;;;;;14.15;62.37;99855.13;4445597;32;19995;-77
2022/09/20 01:51:16;;;;;;;;;;;;;;;13.98;63.11;99846.44;4446776;32;19981;-78
2022/09/20 01:53:46;;;;;;;;;;;;;;;14.19;62.01;99846.44;4460307;32;20030;-78
2022/09/20 01:56:26;;;;;;;;;;;;;;;14.04;62.71;99846.41;4460364;32;19993;-79
2022/09/20 01:59:08;;;;;;;;;;;;;;;14.34;61.36;99846.47;4446038;32;19984;-78
2022/09/20 02:01:56;;;;;;;;;;;;;;;14.24;62.12;99849.94;4459914;32;20258;-80
2022/09/20 02:04:23;;;;;;;;;;;;;;;14.19;61.79;99851.66;4459616;32;20005;-77
2022/09/20 02:07:04;;;;;;;;;;;;;;;14.19;62.11;99856.87;4460590;32;19999;-76
2022/09/20 02:09:40;;;;;;;;;;;;;;;14.08;62.73;99853.38;4445852;32;20000;-80
2022/09/20 02:12:07;;;;;;;;;;;;;;;14.01;63.52;99846.41;4460450;32;19976;-80
2022/09/20 02:14:40;;;;;;;;;;;;;;;14.37;61.80;99856.87;4460207;32;19992;-78
2022/09/20 02:17:15;;;;;;;;;;;;;;;14.28;62.08;99856.87;4445735;32;19980;-79
2022/09/20 02:19:57;;;;;;;;;;;;;;;14.10;62.99;99862.03;4444699;32;19984;-78
2022/09/20 02:22:23;;;;;;;;;;;;;;;14.07;62.48;99868.16;4462380;32;19973;-77
2022/09/20 02:25:06;;;;;;;;;;;;;;;14.28;62.00;99872.50;4462497;32;19972;-79
2022/09/20 02:27:38;;;;;;;;;;;;;;;14.07;62.93;99867.25;4462407;32;19984;-77
2022/09/20 02:30:08;;;;;;;;;;;;;;;14.19;62.33;99867.28;4462883;32;20003;-81
2022/09/20 02:32:44;;;;;;;;;;;;;;;13.94;62.84;99871.56;4448261;32;19969;-77
2022/09/20 02:35:12;;;;;;;;;;;;;;;14.08;62.41;99869.88;4462073;32;19989;-77
2022/09/20 02:37:58;;;;;;;;;;;;;;;13.79;62.99;99861.97;4462842;32;19992;-79
2022/09/20 02:40:25;;;;;;;;;;;;;;;13.91;62.55;99872.44;4462494;32;19985;-77
2022/09/20 02:43:11;;;;;;;;;;;;;;;14.16;61.51;99862.94;4297988;32;5086463;-82
2022/09/20 02:45:43;;;;;;;;;;;;;;;13.91;62.12;99862.03;4443229;32;19977;-83
2022/09/20 02:48:10;;;;;;;;;;;;;;;13.86;62.18;99861.13;4462020;32;20044;-80
2022/09/20 02:51:12;;;;;;;;;;;;;;;14.02;61.47;99874.19;4448100;32;20795;-79
2022/09/20 02:53:44;;;;;;;;;;;;;;;13.78;62.13;99865.44;4428278;32;19985;-77
2022/09/20 02:56:32;;;;;;;;;;;;;;;13.91;61.86;99872.44;4439814;32;20051;-80
2022/09/20 02:59:18;;;;;;;;;;;;;;;13.84;62.08;99878.47;4432699;32;19993;-77
2022/09/20 03:01:53;;;;;;;;;;;;;;;13.56;62.94;99885.31;4256164;32;5088016;-80
2022/09/20 03:04:22;;;;;;;;;;;;;;;13.74;62.36;99881.91;4446514;32;19978;-80
2022/09/20 03:06:49;;;;;;;;;;;;;;;13.78;62.26;99885.38;4415924;32;19986;-80
2022/09/20 03:09:28;;;;;;;;;;;;;;;13.64;63.09;99888.78;4442186;32;19981;-77
2022/09/20 03:12:07;;;;;;;;;;;;;;;13.30;63.96;99897.28;4436089;32;20329;-80
2022/09/20 03:14:56;;;;;;;;;;;;;;;13.80;62.49;99894.06;4462159;32;19987;-81
2022/09/20 03:17:26;;;;;;;;;;;;;;;13.92;62.50;99899.31;4448076;32;20000;-77
2022/09/20 03:20:11;;;;;;;;;;;;;;;13.47;64.28;99896.53;4461729;32;19985;-77
2022/09/20 03:22:59;;;;;;;;;;;;;;;13.66;64.16;99894.03;4462523;32;19977;-80
2022/09/20 03:25:25;;;;;;;;;;;;;;;14.00;62.96;99888.91;4431720;32;20269;-83
2022/09/20 03:27:52;;;;;;;;;;;;;;;13.81;63.00;99880.19;4462651;32;19977;-79
2022/09/20 03:30:40;;;;;;;;;;;;;;;13.98;62.71;99888.06;4462419;32;19969;-80
2022/09/20 03:33:07;;;;;;;;;;;;;;;14.15;61.86;99886.37;4461132;32;20150;-82
2022/09/20 03:35:34;;;;;;;;;;;;;;;14.01;62.56;99882.84;4462122;32;20007;-79
2022/09/20 03:38:09;;;;;;;;;;;;;;;14.16;62.05;99886.34;4458862;32;19997;-80
2022/09/20 03:40:48;;;;;;;;;;;;;;;13.98;62.61;99888.06;4448084;32;19992;-79
2022/09/20 03:43:34;;;;;;;;;;;;;;;14.04;62.46;99890.66;4462649;32;19985;-80
2022/09/20 03:46:07;;;;;;;;;;;;;;;13.84;63.62;99886.25;4461791;32;19999;-77
2022/09/20 03:48:55;;;;;;;;;;;;;;;14.09;62.36;99891.56;4446658;32;20040;-78
2022/09/20 03:51:34;;;;;;;;;;;;;;;14.05;61.65;99884.63;4447288;32;19981;-82
2022/09/20 03:54:20;;;;;;;;;;;;;;;14.05;62.01;99895.03;4447726;32;19995;-77
2022/09/20 03:56:52;;;;;;;;;;;;;;;14.08;61.66;99879.41;4447340;32;19982;-82
2022/09/20 03:59:25;;;;;;;;;;;;;;;13.70;62.40;99882.75;4435351;32;20026;-81
2022/09/20 04:02:10;;;;;;;;;;;;;;;13.82;62.06;99877.59;4462029;32;19985;-79
2022/09/20 04:04:39;;;;;;;;;;;;;;;13.77;62.46;99879.31;4461360;32;20646;-76
2022/09/20 04:07:15;;;;;;;;;;;;;;;13.78;62.32;99874.97;4447762;32;20610;-82
2022/09/20 04:09:46;;;;;;;;;;;;;;;13.68;62.41;99874.06;4461640;32;20066;-80
2022/09/20 04:12:16;;;;;;;;;;;;;;;13.81;62.00;99881.03;4447907;32;19977;-79
2022/09/20 04:14:48;;;;;;;;;;;;;;;13.60;62.72;99886.19;4461159;32;20263;-78
2022/09/20 04:17:14;;;;;;;;;;;;;;;13.61;62.88;99887.91;4447298;32;19984;-77
2022/09/20 04:19:45;;;;;;;;;;;;;;;13.64;62.47;99898.34;4462191;32;19985;-83
2022/09/20 04:22:13;;;;;;;;;;;;;;;13.76;61.86;99898.41;4445768;32;20274;-77
2022/09/20 04:24:43;;;;;;;;;;;;;;;13.44;63.20;99895.66;4439055;32;19989;-83
2022/09/20 04:27:14;;;;;;;;;;;;;;;13.56;62.33;99905.22;4443000;32;20037;-85
2022/09/20 04:29:41;;;;;;;;;;;;;;;13.58;62.21;99908.72;4437713;32;20003;-82
2022/09/20 04:32:24;;;;;;;;;;;;;;;13.62;62.21;99900.06;4448567;32;20432;-78
2022/09/20 04:37:40;;;;;;;;;;;;;;;13.49;62.01;99899.97;4463108;32;19976;-80
2022/09/20 04:40:08;;;;;;;;;;;;;;;13.52;61.75;99903.47;4448646;32;19973;-84
2022/09/20 04:43:00;;;;;;;;;;;;;;;13.33;62.81;99898.16;4435557;32;19993;-90
2022/09/20 04:45:50;;;;;;;;;;;;;;;13.42;62.58;99898.22;4435100;32;20026;-84
2022/09/20 04:48:26;;;;;;;;;;;;;;;13.61;61.39;99893.13;4449093;32;19996;-90
2022/09/20 04:50:53;;;;;;;;;;;;;;;13.37;61.82;99894.75;4461909;32;20000;-82
2022/09/20 04:53:20;;;;;;;;;;;;;;;13.35;62.51;99901.66;4462923;32;19994;-81
2022/09/20 04:55:49;;;;;;;;;;;;;;;13.26;62.79;99899.00;4463239;32;20004;-85
2022/09/20 04:58:19;;;;;;;;;;;;;;;13.37;62.56;99904.25;4463729;32;19986;-91
2022/09/20 05:01:02;;;;;;;;;;;;;;;13.10;64.00;99905.78;4462669;32;19985;-75
2022/09/20 05:03:48;;;;;;;;;;;;;;;13.33;62.95;99902.50;4448441;32;19965;-80
2022/09/20 05:06:15;;;;;;;;;;;;;;;13.39;63.02;99908.59;4463134;32;19984;-84
2022/09/20 05:08:54;;;;;;;;;;;;;;;13.34;62.78;99907.72;4461631;32;19981;-80
2022/09/20 05:11:33;;;;;;;;;;;;;;;13.56;61.82;99913.03;4463223;32;19981;-82
2022/09/20 05:14:05;;;;;;;;;;;;;;;13.68;61.78;99905.28;4464828;32;20004;-94
2022/09/20 05:16:32;;;;;;;;;;;;;;;13.59;62.22;99910.44;4455938;32;19972;-77
2022/09/20 05:19:06;;;;;;;;;;;;;;;13.28;63.71;99920.69;4469347;32;19961;-78
2022/09/20 05:21:33;;;;;;;;;;;;;;;13.43;63.31;99923.38;4463100;32;19976;-88
2022/09/20 05:24:19;;;;;;;;;;;;;;;13.47;63.25;99922.53;4446994;32;19988;-91
2022/09/20 05:27:05;;;;;;;;;;;;;;;13.55;62.97;99930.38;4460701;32;19995;-81
2022/09/20 05:29:53;;;;;;;;;;;;;;;13.39;64.06;99929.41;4461686;32;20014;-88
2022/09/20 05:32:43;;;;;;;;;;;;;;;13.51;63.83;99938.16;4447399;32;19985;-91
2022/09/20 05:35:14;;;;;;;;;;;;;;;13.80;62.30;99935.69;3834909;32;10009981;-83
2022/09/20 05:37:59;;;;;;;;;;;;;;;13.72;62.96;99943.47;4459390;32;20028;-78
2022/09/20 05:40:44;;;;;;;;;;;;;;;13.85;61.98;99942.66;4445868;32;19980;-83
2022/09/20 05:43:12;;;;;;;;;;;;;;;13.92;62.19;99943.56;4459992;32;19969;-82
2022/09/20 05:45:58;;;;;;;;;;;;;;;13.77;62.79;99946.94;4448075;32;19977;-78
2022/09/20 05:48:30;;;;;;;;;;;;;;;14.05;61.63;99947.09;4462344;32;19973;-82
2022/09/20 05:50:59;;;;;;;;;;;;;;;13.98;61.61;99945.31;4448600;32;19984;-83
2022/09/20 05:53:40;;;;;;;;;;;;;;;13.73;62.79;99940.87;4438277;32;19980;-84
2022/09/20 05:56:15;;;;;;;;;;;;;;;13.60;63.93;99943.41;4450969;32;19985;-77
2022/09/20 05:58:45;;;;;;;;;;;;;;;14.00;61.86;99938.38;4448760;32;19988;-80
2022/09/20 06:01:26;;;;;;;;;;;;;;;14.00;61.90;99936.62;4461966;32;20390;-79
2022/09/20 06:03:55;;;;;;;;;;;;;;;13.88;62.42;99939.19;4446803;32;19969;-79
2022/09/20 06:06:25;;;;;;;;;;;;;;;13.80;63.22;99952.16;4447130;32;20011;-81
2022/09/20 06:09:17;;;;;;;;;;;;;;;13.89;62.53;99946.16;4449197;32;19981;-80
2022/09/20 06:12:02;;;;;;;;;;;;;;;13.94;62.77;99945.31;4462688;32;19985;-78
2022/09/20 06:14:49;;;;;;;;;;;;;;;14.11;61.97;99947.97;4462904;32;19991;-81
2022/09/20 06:17:28;;;;;;;;;;;;;;;14.07;62.92;99942.72;4448795;32;20012;-79
2022/09/20 06:19:59;;;;;;;;;;;;;;;14.05;63.53;99947.94;4432101;32;19977;-80
2022/09/20 06:22:46;;;;;;;;;;;;;;;14.30;63.17;99959.31;4433801;32;19988;-80
2022/09/20 06:25:14;;;;;;;;;;;;;;;14.32;62.70;99952.34;4444465;32;19981;-77
2022/09/20 06:27:42;;;;;;;;;;;;;;;14.39;63.62;99959.34;4452705;32;20048;-81
2022/09/20 06:30:20;;;;;;;;;;;;;;;14.73;62.04;99964.63;4434074;32;19985;-82
2022/09/20 06:32:57;;;;;;;;;;;;;;;14.85;61.39;99951.62;4447853;32;20066;-82
2022/09/20 06:35:25;;;;;;;;;;;;;;;15.10;60.44;99959.44;4435344;32;19989;-79
2022/09/20 06:43:39;;;;;;;;;;;;;;;14.84;63.73;99951.62;4450407;32;19981;-78
2022/09/20 06:46:06;;;;;;;;;;;;;;;15.15;60.68;99947.25;4460062;32;20036;-77
2022/09/20 06:48:38;;;;;;;;;;;;;;;14.89;62.27;99955.94;4454453;32;19981;-81
2022/09/20 06:51:06;;;;;;;;;;;;;;;15.13;60.50;99953.38;4443333;32;20739;-82
2022/09/20 06:53:34;;;;;;;;;;;;;;;15.10;60.80;99949.88;4446705;32;19997;-83
2022/09/20 06:56:01;;;;;;;;;;;;;;;15.22;61.21;99958.53;4442676;32;19969;-81
2022/09/20 06:58:28;;;;;;;;;;;;;;;15.29;61.26;99961.16;4450106;32;19993;-79
2022/09/20 07:00:54;;;;;;;;;;;;;;;15.43;58.96;99957.66;4453237;32;20022;-80
2022/09/20 07:03:21;;;;;;;;;;;;;;;15.44;58.23;99955.03;4453496;32;19999;-78
2022/09/20 07:05:49;;;;;;;;;;;;;;;15.23;59.17;99961.16;4454370;32;19998;-78
2022/09/20 07:08:16;;;;;;;;;;;;;;;15.26;59.16;99955.94;4453003;32;19977;-80
2022/09/20 07:10:43;;;;;;;;;;;;;;;15.38;58.19;99954.19;4456764;32;19977;-79
2022/09/20 07:13:12;;;;;;;;;;;;;;;15.17;60.50;99961.16;4462378;32;19981;-78
2022/09/20 07:15:39;;;;;;;;;;;;;;;15.37;59.66;99961.13;4462379;32;20025;-76
2022/09/20 07:18:07;;;;;;;;;;;;;;;15.43;59.11;99962.87;4461835;32;19993;-80
2022/09/20 07:20:34;;;;;;;;;;;;;;;15.30;59.43;99962.87;4462256;32;19992;-80
2022/09/20 07:23:01;;;;;;;;;;;;;;;15.45;59.66;99961.16;4462192;32;20406;-77
2022/09/20 07:25:29;;;;;;;;;;;;;;;15.43;58.62;99965.47;4462354;32;19999;-80
2022/09/20 07:27:56;;;;;;;;;;;;;;;15.54;58.87;99971.56;4448199;32;19981;-76
2022/09/20 07:30:23;;;;;;;;;;;;;;;15.55;58.08;99974.16;4463165;32;19984;-81
2022/09/20 07:32:50;;;;;;;;;;;;;;;15.37;60.11;99978.53;4460015;32;19988;-80
2022/09/20 07:35:16;;;;;;;;;;;;;;;15.51;57.82;99976.78;4454410;32;19965;-79
2022/09/20 07:37:43;;;;;;;;;;;;;;;15.96;56.23;99980.19;4440459;32;20004;-80
2022/09/20 07:40:10;;;;;;;;;;;;;;;16.16;57.02;99973.13;4454785;32;19977;-78
2022/09/20 07:42:37;;;;;;;;;;;;;;;15.89;56.14;99981.94;4453747;32;20032;-77
2022/09/20 07:45:04;;;;;;;;;;;;;;;16.16;56.62;99986.19;4451137;32;19973;-79
2022/09/20 07:47:32;;;;;;;;;;;;;;;16.34;55.37;99987.84;4442788;32;19995;-78
2022/09/20 07:49:59;;;;;;;;;;;;;;;16.62;53.86;99982.44;4441890;32;20042;-82
2022/09/20 07:52:25;;;;;;;;;;;;;;;16.54;56.66;99985.13;4454537;32;19977;-78
2022/09/20 07:54:53;;;;;;;;;;;;;;;16.95;55.40;99987.47;4454431;32;19974;-81
2022/09/20 07:57:19;;;;;;;;;;;;;;;17.00;53.84;99995.28;4453404;32;19989;-78
2022/09/20 07:59:46;;;;;;;;;;;;;;;17.37;54.63;99995.00;4454378;32;19985;-82
2022/09/20 08:02:14;;;;;;;;;;;;;;;17.41;53.16;99991.44;4453997;32;20440;-82
2022/09/20 08:04:41;;;;;;;;;;;;;;;17.36;52.63;99985.41;4443041;32;19992;-83
2022/09/20 08:07:07;;;;;;;;;;;;;;;17.60;54.10;99987.78;4454701;32;19977;-84
2022/09/20 08:09:34;;;;;;;;;;;;;;;17.92;50.61;99983.09;4454394;32;19973;-80
2022/09/20 08:12:01;;;;;;;;;;;;;;;17.94;52.49;99991.81;4460345;32;20277;-81
2022/09/20 08:14:48;;;;;;;;;;;;;;;17.96;53.66;99995.28;4459465;32;19991;-78
2022/09/20 08:17:15;;;;;;;;;;;;;;;18.27;49.02;99990.53;4462289;32;19997;-82
2022/09/20 08:19:43;;;;;;;;;;;;;;;18.18;48.22;99990.62;4434094;32;20033;-84
2022/09/20 08:22:11;;;;;;;;;;;;;;;18.02;48.58;99996.06;4462117;32;20336;-82
2022/09/20 08:24:38;;;;;;;;;;;;;;;17.81;51.31;99991.09;4462043;32;19987;-78
2022/09/20 08:27:05;;;;;;;;;;;;;;;18.07;49.88;99994.28;4462359;32;19981;-81
2022/09/20 08:29:31;;;;;;;;;;;;;;;18.21;50.41;99995.84;4461130;32;20008;-81
2022/09/20 08:32:00;;;;;;;;;;;;;;;18.23;48.52;99979.22;4462211;32;20668;-80
2022/09/20 08:34:27;;;;;;;;;;;;;;;18.31;49.24;99986.97;4461846;32;20001;-82
2022/09/20 08:36:55;;;;;;;;;;;;;;;18.20;49.16;99994.13;4457928;32;19992;-84
2022/09/20 08:39:23;;;;;;;;;;;;;;;17.98;48.96;99994.37;4462296;32;19972;-81
2022/09/20 08:42:11;;;;;;;;;;;;;;;17.64;49.75;99994.72;4449797;32;20328;-80
2022/09/20 08:44:55;;;;;;;;;;;;;;;17.49;50.22;99994.88;4461792;32;19980;-80
2022/09/20 08:47:29;;;;;;;;;;;;;;;17.51;52.49;99998.31;4447817;32;20027;-78
2022/09/20 08:49:57;;;;;;;;;;;;;;;17.73;50.42;99993.75;4460720;32;19976;-81
2022/09/20 08:52:31;;;;;;;;;;;;;;;17.66;50.34;100006.03;4442974;32;19976;-83
2022/09/20 08:55:13;;;;;;;;;;;;;;;17.67;51.15;100010.37;4448803;32;20325;-85
2022/09/20 08:57:40;;;;;;;;;;;;;;;17.59;53.03;100009.59;4448069;32;20100;-79
2022/09/20 09:00:18;;;;;;;;;;;;;;;17.72;50.71;100009.47;4430037;32;19989;-81
2022/09/20 09:02:44;;;;;;;;;;;;;;;17.62;53.00;100006.09;4447829;32;20323;-81
2022/09/20 09:05:27;;;;;;;;;;;;;;;18.16;50.07;100002.91;4462153;32;20324;-78
2022/09/20 09:07:54;;;;;;;;;;;;;;;17.89;51.12;99994.47;4461496;32;19981;-80
2022/09/20 09:10:20;;;;;;;;;;;;;;;17.77;52.07;99994.59;4461494;32;19991;-81
2022/09/20 09:12:47;;;;;;;;;;;;;;;18.11;51.50;99995.97;4446424;32;20324;-79
2022/09/20 09:15:28;;;;;;;;;;;;;;;18.51;47.55;99995.47;4461503;32;20035;-84
2022/09/20 09:17:55;;;;;;;;;;;;;;;18.23;48.46;99996.72;4447373;32;20001;-85
2022/09/20 09:20:22;;;;;;;;;;;;;;;18.27;47.57;99990.53;4461205;32;19988;-86
2022/09/20 09:23:10;;;;;;;;;;;;;;;18.17;47.23;99994.16;4461979;32;20003;-83
2022/09/20 09:25:38;;;;;;;;;;;;;;;17.94;48.67;99987.44;4461167;32;20007;-84
2022/09/20 09:28:04;;;;;;;;;;;;;;;18.11;49.23;99985.47;4447511;32;19984;-96
2022/09/20 09:30:31;;;;;;;;;;;;;;;18.20;52.02;99988.88;4462952;32;20034;-93
2022/09/20 09:33:17;;;;;;;;;;;;;;;18.71;47.06;99986.44;4463067;32;19991;-84
2022/09/20 09:35:51;;;;;;;;;;;;;;;18.59;46.97;99990.94;4444012;32;19976;-87
2022/09/20 09:38:22;;;;;;;;;;;;;;;18.28;48.93;99984.41;4463603;32;19973;-96
2022/09/20 09:40:53;;;;;;;;;;;;;;;18.12;49.42;99992.47;4448210;32;20447;-91
2022/09/20 09:43:23;;;;;;;;;;;;;;;18.07;48.20;99988.16;4445990;32;19999;-82
2022/09/20 09:45:50;;;;;;;;;;;;;;;17.86;48.23;99994.50;4448721;32;19977;-87
2022/09/20 09:48:18;;;;;;;;;;;;;;;17.80;48.52;99989.34;4462852;32;20074;-91
2022/09/20 09:50:46;;;;;;;;;;;;;;;17.74;51.50;99990.25;4447090;32;20003;-91
2022/09/20 09:53:14;;;;;;;;;;;;;;;17.95;50.60;99989.16;4462528;32;20329;-89
2022/09/20 09:55:59;;;;;;;;;;;;;;;18.34;48.12;99979.94;4447978;32;19991;-90
2022/09/20 09:58:33;;;;;;;;;;;;;;;18.20;49.93;99981.88;4448152;32;19981;-91
2022/09/20 10:01:00;;;;;;;;;;;;;;;18.51;45.96;99984.97;4463285;32;19980;-91
2022/09/20 10:03:29;;;;;;;;;;;;;;;18.39;46.98;99979.88;4449043;32;20341;-88
2022/09/20 10:06:01;;;;;;;;;;;;;;;18.85;46.30;99984.47;4448877;32;19977;-88
2022/09/20 10:08:47;;;;;;;;;;;;;;;18.62;45.90;99992.66;4463153;32;19985;-88
2022/09/20 10:11:27;;;;;;;;;;;;;;;18.56;45.63;99972.63;4462864;32;20383;-87
2022/09/20 10:14:04;;;;;;;;;;;;;;;18.54;46.04;99984.94;4447801;32;19985;-93
2022/09/20 10:16:43;;;;;;;;;;;;;;;18.62;46.55;99981.31;4433380;32;19988;-89
2022/09/20 10:19:16;;;;;;;;;;;;;;;18.78;45.95;99977.59;4450425;32;19977;-88
2022/09/20 10:21:51;;;;;;;;;;;;;;;18.87;43.88;99982.72;4463008;32;20052;-81
2022/09/20 10:24:41;;;;;;;;;;;;;;;18.86;44.56;99990.59;4448579;32;20227;-87
2022/09/20 10:27:21;;;;;;;;;;;;;;;18.61;46.05;99984.84;4447133;32;20026;-85
2022/09/20 10:29:58;;;;;;;;;;;;;;;18.73;45.72;99984.66;4446233;32;19980;-86
2022/09/20 10:32:27;;;;;;;;;;;;;;;19.00;46.15;99978.16;4463009;32;20512;-85
2022/09/20 10:35:10;;;;;;;;;;;;;;;19.17;44.36;99975.22;4448628;32;20330;-87
2022/09/20 10:37:41;;;;;;;;;;;;;;;18.91;44.74;99979.16;4449045;32;19973;-91
2022/09/20 10:40:14;;;;;;;;;;;;;;;19.32;43.87;99969.72;4449506;32;20044;-92
2022/09/20 10:45:37;;;;;;;;;;;;;;;18.83;47.05;99973.16;4450217;32;20373;-85
2022/09/20 10:48:24;;;;;;;;;;;;;;;19.43;44.68;99962.53;4462577;32;20242;-88
2022/09/20 10:50:53;;;;;;;;;;;;;;;19.80;43.76;99951.34;4462329;32;20281;-86
2022/09/20 10:53:26;;;;;;;;;;;;;;;19.77;44.02;99961.06;4449019;32;19992;-86
2022/09/20 10:56:14;;;;;;;;;;;;;;;19.58;43.41;99965.75;4449499;32;20015;-88
2022/09/20 10:58:45;;;;;;;;;;;;;;;19.55;45.33;99966.69;4448291;32;20250;-86
2022/09/20 11:01:12;;;;;;;;;;;;;;;19.02;48.33;99986.88;4463237;32;20029;-88
2022/09/20 11:03:59;;;;;;;;;;;;;;;18.97;48.96;99980.81;4444460;32;19985;-89
2022/09/20 11:06:42;;;;;;;;;;;;;;;19.24;47.85;99982.09;4448718;32;19996;-78
2022/09/20 11:09:10;;;;;;;;;;;;;;;18.81;48.93;99988.06;4448517;32;20021;-86
2022/09/20 11:11:45;;;;;;;;;;;;;;;18.71;49.61;99981.19;4448898;32;19993;-91
2022/09/20 11:14:35;;;;;;;;;;;;;;;18.62;51.69;99976.06;4446834;32;19989;-82
2022/09/20 11:17:08;;;;;;;;;;;;;;;18.63;52.85;99988.28;4434490;32;19999;-86
2022/09/20 11:19:56;;;;;;;;;;;;;;;17.95;57.55;99983.94;4440344;32;19985;-89
2022/09/20 11:22:26;;;;;;;;;;;;;;;18.11;55.74;99982.00;4456427;32;20011;-82
2022/09/20 11:25:13;;;;;;;;;;;;;;;18.00;58.02;99976.91;4453454;32;20715;-85
2022/09/20 11:27:48;;;;;;;;;;;;;;;18.34;56.22;99979.06;4441847;32;20770;-84
2022/09/20 11:30:19;;;;;;;;;;;;;;;18.50;55.54;99967.47;4443193;32;20341;-88
2022/09/20 11:32:48;;;;;;;;;;;;;;;18.69;53.50;99962.84;4438244;32;19989;-87
2022/09/20 11:35:15;;;;;;;;;;;;;;;18.57;54.77;99968.28;4441143;32;19992;-88
2022/09/20 11:37:49;;;;;;;;;;;;;;;18.62;54.17;99961.22;4460110;32;19984;-84
2022/09/20 11:40:21;;;;;;;;;;;;;;;18.45;55.10;99956.22;4445946;32;19977;-84
2022/09/20 11:42:48;;;;;;;;;;;;;;;18.68;52.65;99949.75;4448287;32;19972;-85
2022/09/20 11:45:14;;;;;;;;;;;;;;;18.50;55.73;99951.75;4447448;32;19993;-90
2022/09/20 11:47:44;;;;;;;;;;;;;;;18.63;50.88;99956.81;4447523;32;19973;-81
2022/09/20 11:50:44;;;;;;;;;;;;;;;18.68;50.67;99949.75;4449526;32;19998;-83
2022/09/20 11:53:14;;;;;;;;;;;;;;;18.64;50.29;99942.84;4447468;32;20390;-85
2022/09/20 11:55:59;;;;;;;;;;;;;;;18.36;51.13;99943.25;4461853;32;19988;-83
2022/09/20 11:58:26;;;;;;;;;;;;;;;18.47;50.18;99943.06;4447845;32;19988;-78
2022/09/20 12:00:55;;;;;;;;;;;;;;;18.44;50.83;99935.25;4440725;32;19984;-83
2022/09/20 12:03:31;;;;;;;;;;;;;;;18.16;54.90;99934.78;4447632;32;20388;-85
2022/09/20 12:06:02;;;;;;;;;;;;;;;18.41;51.11;99941.44;4461629;32;20352;-80
2022/09/20 12:08:30;;;;;;;;;;;;;;;18.55;48.92;99934.22;4452251;32;19995;-78
2022/09/20 12:11:02;;;;;;;;;;;;;;;18.51;51.24;99937.78;4454713;32;20366;-83
2022/09/20 12:13:31;;;;;;;;;;;;;;;18.61;51.09;99935.88;4454800;32;19985;-82
2022/09/20 12:15:58;;;;;;;;;;;;;;;18.91;50.34;99931.06;4438585;32;20050;-85
2022/09/20 12:18:30;;;;;;;;;;;;;;;19.17;48.17;99933.25;4440596;32;20004;-86
2022/09/20 12:21:01;;;;;;;;;;;;;;;19.29;46.90;99933.03;4440310;32;19977;-79
2022/09/20 12:23:39;;;;;;;;;;;;;;;19.19;48.16;99923.59;4438828;32;20007;-82
2022/09/20 12:26:21;;;;;;;;;;;;;;;18.98;50.00;99928.31;4454100;32;19981;-83
2022/09/20 12:28:49;;;;;;;;;;;;;;;19.33;47.63;99916.31;4455284;32;19973;-82
2022/09/20 12:31:28;;;;;;;;;;;;;;;19.35;49.00;99922.41;4437592;32;20847;-81
2022/09/20 12:33:55;;;;;;;;;;;;;;;19.25;49.23;99928.75;4439517;32;20582;-81
2022/09/20 12:36:22;;;;;;;;;;;;;;;19.36;49.26;99912.78;4457616;32;19977;-83
2022/09/20 12:39:09;;;;;;;;;;;;;;;19.32;49.36;99922.47;4455468;32;20043;-83
2022/09/20 12:41:50;;;;;;;;;;;;;;;19.52;46.31;99925.59;4440650;32;19981;-83
2022/09/20 12:44:31;;;;;;;;;;;;;;;19.75;45.65;99921.69;4450852;32;19992;-83
2022/09/20 12:47:10;;;;;;;;;;;;;;;19.71;45.80;99923.50;4450835;32;19989;-80
2022/09/20 12:52:56;;;;;;;;;;;;;;;19.45;44.59;99928.38;4461478;32;19981;-90
2022/09/20 12:55:26;;;;;;;;;;;;;;;19.13;46.34;99926.31;4461487;32;20393;-89
2022/09/20 12:57:54;;;;;;;;;;;;;;;18.85;47.53;99932.03;4456790;32;19977;-84
2022/09/20 13:00:47;;;;;;;;;;;;;;;18.96;46.85;99930.09;4454219;32;20039;-89
2022/09/20 13:03:15;;;;;;;;;;;;;;;18.64;48.79;99940.22;4443616;32;19984;-88
2022/09/20 13:05:44;;;;;;;;;;;;;;;18.88;45.14;99924.09;4452007;32;19973;-84
2022/09/20 13:08:17;;;;;;;;;;;;;;;18.87;45.83;99919.75;4446429;32;20015;-88
2022/09/20 13:10:48;;;;;;;;;;;;;;;18.57;46.58;99931.59;4443402;32;19995;-92
2022/09/20 13:13:35;;;;;;;;;;;;;;;18.62;46.25;99923.63;4146393;32;10000885;-90
2022/09/20 13:16:04;;;;;;;;;;;;;;;18.59;46.25;99925.41;4446740;32;19968;-89
2022/09/20 13:18:32;;;;;;;;;;;;;;;18.75;46.12;99925.22;4453948;32;19995;-89
2022/09/20 13:21:05;;;;;;;;;;;;;;;18.69;46.40;99925.25;4440874;32;19989;-89
2022/09/20 13:23:36;;;;;;;;;;;;;;;18.59;46.83;99930.66;4446664;32;19995;-89
2022/09/20 13:26:04;;;;;;;;;;;;;;;18.55;48.81;99928.97;4443429;32;19985;-85
2022/09/20 13:28:32;;;;;;;;;;;;;;;18.69;48.04;99920.88;4438205;32;20246;-80
2022/09/20 13:31:15;;;;;;;;;;;;;;;18.73;48.06;99917.37;4434473;32;19993;-86